Terminal Aerodrome Forecast
Issued by NWS

Home | Current Version | Previous Version | Text Only | Print | Product List | Glossary On
Versions: 1 2 3 4 5 6 7 8 9 10 11 12 13 14 15 16 17 18 19 20 21 22 23 24 25
269
FTUS46 KSGX 221442 AAA
TAFSAN
TAF AMD
KSAN 221442Z 2215/2318 VRB05KT P6SM OVC008
     FM221630 32005KT P6SM SCT010
     FM221900 29010KT P6SM SKC
     FM230200 VRB04KT P6SM SCT007
     FM230600 VRB04KT 2SM BR VCFG OVC005
     FM231630 VRB04KT P6SM SCT010=

USA.gov is the U.S. government's official web portal to all federal, state and local government web resources and services.